Time;durP1;ratioP1;P1;durP2;ratioP2;P2;SDS_P1;SDS_P2;PMS_P1;PMS_P2;Temp;Humidity;BMP_temperature;BMP_pressure;BME280_temperature;BME280_humidity;BME280_pressure;Samples;Min_cycle;Max_cycle;Signal;HPM_P1;HPM_P2
2021/10/04 00:01:08;;;;;;;2.67;0.60;;;;;;;11.37;80.35;101042.22;5016635;28;20042;-76
2021/10/04 00:03:34;;;;;;;4.72;0.93;;;;;;;11.44;79.76;101045.84;5015454;28;20038;-77
2021/10/04 00:06:00;;;;;;;6.00;1.77;;;;;;;11.41;79.92;101059.13;5013413;28;20037;-77
2021/10/04 00:08:26;;;;;;;1.35;0.60;;;;;;;11.35;80.16;101059.75;5019720;28;20092;-78
2021/10/04 00:10:52;;;;;;;5.32;1.25;;;;;;;11.38;80.00;101064.63;5016499;28;20537;-79
2021/10/04 00:13:19;;;;;;;4.07;0.73;;;;;;;11.35;80.33;101071.91;5005983;28;20080;-77
2021/10/04 00:15:44;;;;;;;4.78;0.75;;;;;;;11.32;80.91;101074.81;4999690;28;20034;-76
2021/10/04 00:18:10;;;;;;;1.80;0.70;;;;;;;11.37;80.48;101078.56;5027235;28;20030;-78
2021/10/04 00:20:36;;;;;;;2.10;0.70;;;;;;;11.36;80.69;101076.13;5014277;28;20034;-77
2021/10/04 00:23:02;;;;;;;2.50;0.70;;;;;;;11.36;80.63;101078.72;5013366;28;20038;-76
2021/10/04 00:25:27;;;;;;;2.40;0.50;;;;;;;11.36;79.81;101079.56;5014075;28;20068;-76
2021/10/04 00:27:53;;;;;;;1.15;0.40;;;;;;;11.30;80.48;101085.34;5016625;28;20065;-77
2021/10/04 00:30:19;;;;;;;3.47;0.80;;;;;;;11.24;81.21;101081.56;5011625;28;20622;-76
2021/10/04 00:32:48;;;;;;;0.60;0.47;;;;;;;11.27;80.61;101093.47;4996602;28;20025;-77
2021/10/04 00:35:15;;;;;;;0.98;0.60;;;;;;;11.23;80.74;101097.34;5014749;28;20026;-78
2021/10/04 00:37:41;;;;;;;1.85;0.57;;;;;;;11.23;80.57;101092.13;5021192;28;20057;-78
2021/10/04 00:40:10;;;;;;;0.95;0.50;;;;;;;11.25;80.13;101092.78;5017723;28;20045;-76
2021/10/04 00:42:36;;;;;;;1.38;0.57;;;;;;;11.32;79.88;101088.63;5001989;28;20064;-76
2021/10/04 00:45:02;;;;;;;0.63;0.50;;;;;;;11.25;80.18;101090.19;5022012;28;20041;-77
2021/10/04 00:47:27;;;;;;;3.25;0.85;;;;;;;11.25;80.02;101092.78;5018160;28;20128;-77
2021/10/04 00:49:53;;;;;;;1.38;0.60;;;;;;;11.21;80.46;101100.06;5019082;28;20041;-77
2021/10/04 00:52:18;;;;;;;2.85;0.50;;;;;;;11.23;80.85;101099.94;5001278;28;20030;-78
2021/10/04 00:54:44;;;;;;;4.15;0.55;;;;;;;11.28;80.32;101095.91;5019869;28;20053;-76
2021/10/04 00:57:10;;;;;;;4.15;0.70;;;;;;;11.29;79.90;101096.72;5018616;28;20049;-77
2021/10/04 00:59:36;;;;;;;1.13;0.55;;;;;;;11.25;80.17;101093.59;5008420;28;20033;-78
2021/10/04 01:02:01;;;;;;;3.53;1.23;;;;;;;11.22;80.45;101098.28;5026716;28;20037;-77
2021/10/04 01:04:27;;;;;;;1.15;0.57;;;;;;;11.26;80.81;101108.22;5018232;28;20026;-78
2021/10/04 01:06:57;;;;;;;8.30;0.80;;;;;;;11.23;81.11;101103.31;5007528;28;20387;-77
2021/10/04 01:09:24;;;;;;;3.67;0.60;;;;;;;11.31;81.08;101102.56;5022105;28;20040;-78
2021/10/04 01:11:51;;;;;;;2.17;0.60;;;;;;;11.25;81.00;101098.78;5015916;28;20040;-77
2021/10/04 01:14:17;;;;;;;4.10;0.65;;;;;;;11.20;81.31;101095.84;5025139;28;20535;-77
2021/10/04 01:16:43;;;;;;;2.97;0.65;;;;;;;11.23;81.44;101097.34;5017676;28;20092;-78
2021/10/04 01:19:09;;;;;;;4.03;0.65;;;;;;;11.19;81.66;101093.38;5007136;28;20034;-77
2021/10/04 01:21:35;;;;;;;1.33;0.68;;;;;;;11.28;81.23;101095.06;4999866;28;20030;-78
2021/10/04 01:24:00;;;;;;;3.03;0.73;;;;;;;11.23;81.15;101105.13;5016091;28;20056;-79
2021/10/04 01:26:26;;;;;;;3.63;0.70;;;;;;;11.22;81.08;101106.06;5020297;28;20103;-78
2021/10/04 01:28:51;;;;;;;1.15;0.60;;;;;;;11.28;80.47;101102.84;5029524;28;20764;-77
2021/10/04 01:31:22;;;;;;;2.65;0.73;;;;;;;11.24;80.33;101117.91;5013930;28;20029;-77
2021/10/04 01:33:52;;;;;;;2.28;0.55;;;;;;;11.28;80.44;101116.66;5017602;28;20061;-77
2021/10/04 01:36:17;;;;;;;13.35;0.88;;;;;;;11.28;80.77;101121.03;4992393;28;20029;-77
2021/10/04 01:38:43;;;;;;;4.68;0.77;;;;;;;11.25;80.64;101113.56;5010110;28;20033;-77
2021/10/04 01:41:09;;;;;;;2.05;0.60;;;;;;;11.22;80.71;101116.44;5000210;28;20038;-77
2021/10/04 01:43:35;;;;;;;2.30;0.50;;;;;;;11.21;80.54;101115.66;5009728;28;20040;-77
2021/10/04 01:46:00;;;;;;;2.20;0.93;;;;;;;11.27;80.17;101116.81;5014282;28;20049;-78
2021/10/04 01:48:26;;;;;;;2.53;0.70;;;;;;;11.20;80.63;101105.41;5021494;28;20037;-76
2021/10/04 01:50:51;;;;;;;6.72;0.70;;;;;;;11.20;80.58;101105.41;5019335;28;20037;-77
2021/10/04 01:53:17;;;;;;;3.22;0.57;;;;;;;11.22;80.92;101116.44;5015919;28;20048;-77
2021/10/04 01:55:43;;;;;;;2.20;0.50;;;;;;;11.22;81.01;101104.28;5017766;28;20042;-78
2021/10/04 01:58:09;;;;;;;1.40;0.52;;;;;;;11.40;79.43;101109.44;5019005;28;20041;-76
2021/10/04 02:00:36;;;;;;;5.05;0.88;;;;;;;11.29;79.76;101104.50;5024193;28;20033;-77
2021/10/04 02:03:02;;;;;;;1.23;0.55;;;;;;;11.23;80.55;101108.53;5020154;28;20041;-78
2021/10/04 02:05:29;;;;;;;1.35;0.60;;;;;;;11.19;80.50;101112.41;5001427;28;20431;-77
2021/10/04 02:07:55;;;;;;;3.50;0.75;;;;;;;11.22;80.29;101113.84;5016349;28;20038;-76
2021/10/04 02:10:24;;;;;;;3.50;0.80;;;;;;;11.20;80.79;101113.19;5022934;28;20080;-77
2021/10/04 02:12:50;;;;;;;6.55;1.15;;;;;;;11.18;80.85;101115.13;5022205;28;20060;-78
2021/10/04 02:15:15;;;;;;;4.95;0.60;;;;;;;11.23;80.41;101102.53;5004378;28;20585;-78
2021/10/04 02:17:41;;;;;;;6.75;0.90;;;;;;;11.27;80.43;101106.44;5020594;28;20042;-76
2021/10/04 02:20:14;;;;;;;2.80;0.70;;;;;;;11.22;80.29;101106.06;5000120;28;20038;-77
2021/10/04 02:22:40;;;;;;;5.30;1.00;;;;;;;11.21;80.26;101109.66;5019892;28;20593;-77
2021/10/04 02:25:07;;;;;;;2.25;0.70;;;;;;;11.17;80.36;101111.72;5001107;28;20501;-77
2021/10/04 02:27:32;;;;;;;2.75;0.70;;;;;;;11.10;80.80;101113.31;4998504;28;20402;-78
2021/10/04 02:29:58;;;;;;;4.38;0.80;;;;;;;11.10;80.81;101111.50;5020115;28;20041;-78
2021/10/04 02:32:24;;;;;;;5.10;0.90;;;;;;;11.05;81.10;101111.16;5024740;28;20034;-75
2021/10/04 02:34:49;;;;;;;3.40;0.63;;;;;;;11.02;81.26;101121.84;5017423;28;20033;-77
2021/10/04 02:37:15;;;;;;;1.90;0.57;;;;;;;11.00;81.35;101113.41;5017906;28;20032;-78
2021/10/04 02:39:40;;;;;;;2.10;0.70;;;;;;;11.03;81.42;101125.25;4999904;28;20853;-77
2021/10/04 02:42:06;;;;;;;1.85;0.63;;;;;;;11.04;81.37;101126.88;5018096;28;20025;-78
2021/10/04 02:44:33;;;;;;;5.68;0.70;;;;;;;11.05;81.08;101123.31;5023022;28;20042;-77
2021/10/04 02:46:59;;;;;;;5.25;0.70;;;;;;;10.99;81.13;101111.75;5017439;28;20164;-76
2021/10/04 02:49:25;;;;;;;0.93;0.50;;;;;;;11.02;81.18;101113.22;5017656;28;20091;-79
2021/10/04 02:51:50;;;;;;;2.55;0.80;;;;;;;10.93;81.68;101103.78;5025511;28;20018;-77
2021/10/04 02:54:16;;;;;;;2.97;0.80;;;;;;;10.88;82.46;101107.63;5019612;28;20576;-78
2021/10/04 02:56:42;;;;;;;4.30;0.70;;;;;;;10.97;82.04;101112.88;5002110;28;20033;-76
2021/10/04 02:59:11;;;;;;;1.95;0.60;;;;;;;10.90;81.98;101108.28;5022423;28;20025;-79
2021/10/04 03:01:36;;;;;;;5.25;0.90;;;;;;;10.98;81.59;101117.94;5021303;28;20076;-77
2021/10/04 03:04:02;;;;;;;2.47;0.73;;;;;;;10.92;82.08;101118.50;5017660;28;20046;-77
2021/10/04 03:06:27;;;;;;;8.95;1.00;;;;;;;10.94;81.73;101131.34;5000289;28;20022;-79
2021/10/04 03:08:53;;;;;;;6.65;1.00;;;;;;;10.90;82.08;101136.00;5019902;28;20038;-75
2021/10/04 03:11:18;;;;;;;4.35;0.70;;;;;;;10.92;82.13;101139.25;5006349;28;20479;-76
2021/10/04 03:13:45;;;;;;;1.92;0.85;;;;;;;10.90;82.13;101139.41;5016351;28;20065;-76
2021/10/04 03:16:10;;;;;;;3.22;0.63;;;;;;;10.89;82.57;101140.38;5001877;28;20386;-77
2021/10/04 03:18:36;;;;;;;2.25;0.55;;;;;;;10.89;82.08;101144.78;4999505;28;20038;-77
2021/10/04 03:21:01;;;;;;;3.63;0.82;;;;;;;10.97;82.24;101157.00;5021399;28;20529;-74
2021/10/04 03:23:27;;;;;;;2.25;0.68;;;;;;;10.88;81.92;101158.69;5018523;28;20022;-77
2021/10/04 03:25:52;;;;;;;2.65;0.70;;;;;;;10.93;82.37;101169.44;5026643;28;20060;-77
2021/10/04 03:28:20;;;;;;;7.05;0.80;;;;;;;10.88;82.17;101163.88;5023099;28;20030;-76
2021/10/04 03:30:45;;;;;;;2.78;0.80;;;;;;;10.86;82.31;101168.41;5022580;28;20120;-76
2021/10/04 03:33:11;;;;;;;4.93;0.85;;;;;;;10.79;82.91;101175.94;5021959;28;20116;-77
2021/10/04 03:35:36;;;;;;;2.58;0.73;;;;;;;10.75;83.04;101171.22;5001846;28;20017;-79
2021/10/04 03:38:02;;;;;;;3.67;0.82;;;;;;;10.75;83.05;101181.59;5014289;28;20037;-77
2021/10/04 03:40:27;;;;;;;4.32;0.90;;;;;;;10.71;83.26;101184.47;5020447;28;20490;-73
2021/10/04 03:42:53;;;;;;;4.35;0.65;;;;;;;10.75;83.12;101181.59;5019860;28;20117;-77
2021/10/04 03:45:18;;;;;;;4.55;0.95;;;;;;;10.75;83.35;101186.78;5018177;28;20189;-77
2021/10/04 03:47:45;;;;;;;2.63;0.70;;;;;;;10.74;83.10;101185.13;5016138;28;20467;-76
2021/10/04 03:50:13;;;;;;;2.85;0.85;;;;;;;10.77;83.08;101188.25;4999806;28;20045;-74
2021/10/04 03:52:39;;;;;;;3.30;1.50;;;;;;;10.74;82.98;101188.56;5009918;28;20036;-76
2021/10/04 03:55:07;;;;;;;2.85;0.70;;;;;;;10.79;82.73;101182.94;5000598;28;20404;-77
2021/10/04 03:57:34;;;;;;;4.43;1.00;;;;;;;10.79;82.83;101188.13;5013055;28;20033;-77
2021/10/04 03:59:59;;;;;;;4.65;0.90;;;;;;;10.86;82.78;101194.34;5000424;28;20029;-79
2021/10/04 04:02:25;;;;;;;3.42;0.90;;;;;;;10.76;83.21;101197.00;5001093;28;20034;-76
2021/10/04 04:04:50;;;;;;;3.47;0.88;;;;;;;10.70;83.24;101205.38;5003014;28;20040;-76
2021/10/04 04:07:16;;;;;;;3.50;0.98;;;;;;;10.73;83.12;101201.69;5000782;28;20149;-76
2021/10/04 04:09:41;;;;;;;1.80;0.70;;;;;;;10.66;83.59;101209.22;5015234;28;20037;-78
2021/10/04 04:12:07;;;;;;;3.35;1.00;;;;;;;10.67;83.80;101203.09;5018088;28;20037;-76
2021/10/04 04:14:33;;;;;;;5.28;1.20;;;;;;;10.70;83.31;101200.22;5021630;28;20025;-77
2021/10/04 04:16:58;;;;;;;10.57;1.42;;;;;;;10.66;83.48;101197.09;5012230;28;20034;-77
2021/10/04 04:19:24;;;;;;;5.22;1.10;;;;;;;10.70;83.41;101208.00;4996935;28;20022;-77
2021/10/04 04:21:49;;;;;;;7.80;1.30;;;;;;;10.65;83.93;101197.22;5021785;28;20433;-78
2021/10/04 04:24:17;;;;;;;2.35;1.30;;;;;;;10.65;83.78;101202.41;5010189;28;20028;-76
2021/10/04 04:26:43;;;;;;;2.60;1.27;;;;;;;10.60;83.99;101195.06;5006114;28;20037;-78
2021/10/04 04:29:08;;;;;;;9.70;1.05;;;;;;;10.67;83.20;101196.09;5029569;28;20029;-78
2021/10/04 04:31:34;;;;;;;6.00;1.40;;;;;;;10.69;83.17;101201.16;5017993;28;20037;-78
2021/10/04 04:33:59;;;;;;;3.58;1.00;;;;;;;10.62;83.56;101192.31;5003287;28;20582;-77
2021/10/04 04:36:25;;;;;;;4.05;1.05;;;;;;;10.59;83.94;101190.84;5005062;28;20017;-77
2021/10/04 04:38:50;;;;;;;7.45;1.30;;;;;;;10.61;83.53;101191.50;5022097;28;20040;-78
2021/10/04 04:41:16;;;;;;;3.63;1.30;;;;;;;10.64;83.32;101195.59;4996297;28;20026;-77
2021/10/04 04:43:42;;;;;;;5.05;1.88;;;;;;;10.59;83.66;101198.63;4999518;28;20037;-77
2021/10/04 04:46:07;;;;;;;4.45;1.23;;;;;;;10.60;83.57;101200.25;5014443;28;20022;-75
2021/10/04 04:48:33;;;;;;;5.82;1.60;;;;;;;10.59;83.83;101201.22;5018287;28;20402;-76
2021/10/04 04:50:58;;;;;;;16.38;1.60;;;;;;;10.61;83.74;101195.91;5036384;28;20034;-76
2021/10/04 04:53:24;;;;;;;4.50;1.40;;;;;;;10.60;83.93;101196.84;5015321;28;20438;-76
2021/10/04 04:55:49;;;;;;;4.68;1.73;;;;;;;10.60;83.68;101195.06;5024209;28;20403;-77
2021/10/04 04:58:14;;;;;;;5.60;1.40;;;;;;;10.59;83.65;101188.25;5002748;28;20026;-76
2021/10/04 05:00:40;;;;;;;5.75;1.80;;;;;;;10.68;82.86;101191.72;5014091;28;20042;-77
2021/10/04 05:03:07;;;;;;;3.10;1.45;;;;;;;10.69;82.84;101204.56;5012944;28;20034;-76
2021/10/04 05:05:33;;;;;;;6.25;1.88;;;;;;;10.81;82.50;101206.94;5009974;28;20069;-78
2021/10/04 05:07:58;;;;;;;6.20;1.40;;;;;;;10.67;83.11;101214.25;5013033;28;20084;-77
2021/10/04 05:10:24;;;;;;;3.70;1.27;;;;;;;10.69;82.89;101216.72;5007623;28;20506;-77
2021/10/04 05:12:49;;;;;;;7.88;1.60;;;;;;;10.67;83.00;101208.28;5014606;28;20090;-80
2021/10/04 05:15:15;;;;;;;7.65;1.30;;;;;;;10.64;83.21;101206.78;5017931;28;20034;-77
2021/10/04 05:17:42;;;;;;;8.55;1.67;;;;;;;10.63;82.99;101225.09;5013088;28;20069;-77
2021/10/04 05:20:08;;;;;;;3.47;1.30;;;;;;;10.72;82.75;101221.63;5004355;28;20041;-76
2021/10/04 05:22:37;;;;;;;4.40;1.58;;;;;;;10.70;82.88;101221.75;5018150;28;20100;-76
2021/10/04 05:25:04;;;;;;;5.43;1.85;;;;;;;10.64;83.21;101218.91;4997277;28;20121;-77
2021/10/04 05:27:30;;;;;;;4.20;1.40;;;;;;;10.63;83.29;101225.09;5023656;28;20061;-77
2021/10/04 05:29:55;;;;;;;6.80;1.70;;;;;;;10.68;82.56;101221.09;5014098;28;20123;-78
2021/10/04 05:32:21;;;;;;;6.18;1.30;;;;;;;10.74;82.18;101230.06;5010166;28;20034;-77
2021/10/04 05:34:46;;;;;;;3.63;1.63;;;;;;;10.73;82.65;101238.81;5000774;28;20033;-76
2021/10/04 05:37:12;;;;;;;5.82;1.25;;;;;;;10.68;82.78;101246.19;5023220;28;20139;-75
2021/10/04 05:39:37;;;;;;;8.98;1.20;;;;;;;10.62;83.12;101241.59;5017489;28;20437;-76
2021/10/04 05:42:03;;;;;;;1.98;1.30;;;;;;;10.59;83.42;101244.50;5017696;28;20034;-79
2021/10/04 05:44:29;;;;;;;8.02;2.08;;;;;;;10.58;83.56;101245.44;4995756;28;20042;-75
2021/10/04 05:46:54;;;;;;;4.85;1.58;;;;;;;10.77;82.67;101247.09;4999592;28;20044;-76
2021/10/04 05:49:20;;;;;;;4.15;1.65;;;;;;;10.70;83.09;101262.44;5010085;28;20030;-77
2021/10/04 05:51:45;;;;;;;3.33;1.33;;;;;;;10.66;83.26;101268.88;5011030;28;20041;-75
2021/10/04 05:54:11;;;;;;;5.38;1.40;;;;;;;10.64;82.98;101268.19;5009784;28;20029;-76
2021/10/04 05:56:36;;;;;;;8.50;1.55;;;;;;;10.64;82.93;101269.03;4999056;28;20083;-75
2021/10/04 05:59:01;;;;;;;2.97;1.40;;;;;;;10.65;82.90;101273.25;5010049;28;20475;-77
2021/10/04 06:01:27;;;;;;;4.10;1.63;;;;;;;10.63;82.89;101277.75;5018880;28;20127;-75
2021/10/04 06:03:53;;;;;;;4.65;1.60;;;;;;;10.73;82.83;101285.47;5011073;28;20034;-74
2021/10/04 06:06:18;;;;;;;3.30;1.88;;;;;;;10.75;82.42;101293.13;5010220;28;20733;-75
2021/10/04 06:08:44;;;;;;;7.28;1.75;;;;;;;10.85;82.35;101296.47;5023740;28;20029;-75
2021/10/04 06:11:09;;;;;;;10.93;1.65;;;;;;;10.81;82.25;101306.34;5003949;28;20044;-74
2021/10/04 06:13:35;;;;;;;3.03;1.65;;;;;;;10.68;82.42;101313.63;5004574;28;20034;-75
2021/10/04 06:16:00;;;;;;;6.72;1.95;;;;;;;10.62;83.42;101322.78;5023926;28;20034;-75
2021/10/04 06:18:25;;;;;;;6.25;1.48;;;;;;;10.77;82.34;101333.50;5007457;28;20046;-75
2021/10/04 06:20:52;;;;;;;9.95;1.70;;;;;;;10.71;82.20;101342.69;5018416;28;20062;-75
2021/10/04 06:23:18;;;;;;;9.65;1.75;;;;;;;10.76;82.14;101333.69;5010861;28;20096;-74
2021/10/04 06:25:44;;;;;;;9.07;1.20;;;;;;;10.79;82.42;101335.97;4991383;28;20555;-74
2021/10/04 06:28:09;;;;;;;3.97;1.30;;;;;;;10.81;82.36;101339.25;5013921;28;20041;-74
2021/10/04 06:30:35;;;;;;;4.30;1.48;;;;;;;10.80;81.97;101345.41;5009758;28;20030;-76
2021/10/04 06:33:00;;;;;;;7.85;1.23;;;;;;;10.84;81.90;101346.75;5008141;28;20030;-75
2021/10/04 06:35:26;;;;;;;4.05;1.38;;;;;;;10.84;81.93;101359.72;5025228;28;20041;-74
2021/10/04 06:37:51;;;;;;;5.07;1.20;;;;;;;10.86;81.51;101356.00;5016154;28;20030;-75
2021/10/04 06:40:17;;;;;;;4.93;1.75;;;;;;;10.87;81.61;101356.84;5008111;28;20041;-75
2021/10/04 06:42:44;;;;;;;5.90;2.63;;;;;;;10.99;81.25;101357.47;5010383;28;20092;-75
2021/10/04 06:45:11;;;;;;;4.63;1.50;;;;;;;11.13;80.72;101348.34;5005959;28;20065;-73
2021/10/04 06:47:37;;;;;;;7.13;1.73;;;;;;;11.08;80.95;101338.41;5013694;28;20471;-75
2021/10/04 06:50:03;;;;;;;4.05;1.27;;;;;;;11.11;80.81;101340.72;5012277;28;20045;-75
2021/10/04 06:52:29;;;;;;;5.97;1.55;;;;;;;11.09;80.78;101340.88;5006464;28;20061;-74
2021/10/04 06:54:56;;;;;;;4.85;1.10;;;;;;;11.19;80.44;101325.25;5006803;28;20026;-74
2021/10/04 06:57:21;;;;;;;15.88;4.07;;;;;;;11.12;80.95;101331.16;5009457;28;20710;-75
2021/10/04 06:59:47;;;;;;;7.47;1.35;;;;;;;11.33;80.27;101336.06;5012803;28;20033;-76
2021/10/04 07:02:12;;;;;;;3.88;1.83;;;;;;;11.27;80.47;101338.28;5005684;28;20044;-75
2021/10/04 07:04:38;;;;;;;6.97;1.65;;;;;;;11.27;80.62;101335.69;5015006;28;20037;-73
2021/10/04 07:07:04;;;;;;;3.30;1.15;;;;;;;11.25;81.10;101344.59;5009063;28;20075;-76
2021/10/04 07:09:29;;;;;;;2.95;1.52;;;;;;;11.36;80.81;101352.19;5016042;28;20026;-75
2021/10/04 07:11:55;;;;;;;5.13;1.58;;;;;;;11.44;79.79;101349.66;5010807;28;20034;-75
2021/10/04 07:14:20;;;;;;;6.03;1.88;;;;;;;11.55;79.78;101360.78;5013734;28;20333;-75
2021/10/04 07:16:45;;;;;;;8.43;1.73;;;;;;;11.56;79.81;101367.59;5011913;28;20025;-79
2021/10/04 07:19:11;;;;;;;8.52;1.60;;;;;;;11.58;80.17;101366.47;5017714;28;20145;-76
2021/10/04 07:21:37;;;;;;;4.25;1.67;;;;;;;11.56;79.80;101370.19;5008432;28;20032;-76
2021/10/04 07:24:03;;;;;;;6.93;1.60;;;;;;;11.66;79.61;101363.16;5014525;28;20029;-75
2021/10/04 07:26:30;;;;;;;7.00;1.60;;;;;;;11.51;80.30;101355.06;5013110;28;20509;-75
2021/10/04 07:28:56;;;;;;;6.20;1.17;;;;;;;11.46;81.01;101367.69;5016541;28;20040;-75
2021/10/04 07:31:21;;;;;;;5.47;1.65;;;;;;;11.39;81.20;101364.84;5009850;28;20113;-75
2021/10/04 07:33:47;;;;;;;7.95;1.42;;;;;;;11.45;81.34;101361.69;5014821;28;20494;-75
2021/10/04 07:36:12;;;;;;;5.45;1.55;;;;;;;11.60;80.00;101359.38;5009435;28;20403;-74
2021/10/04 07:38:38;;;;;;;7.18;1.48;;;;;;;11.60;79.97;101363.75;5015701;28;20120;-73
2021/10/04 07:41:05;;;;;;;7.50;1.33;;;;;;;11.50;80.22;101362.03;5010287;28;20116;-75
2021/10/04 07:43:32;;;;;;;5.45;1.27;;;;;;;11.50;80.69;101372.41;4992577;28;20030;-75
2021/10/04 07:45:58;;;;;;;7.40;1.40;;;;;;;11.59;80.19;101377.72;4997343;28;20036;-76
2021/10/04 07:48:25;;;;;;;2.92;1.52;;;;;;;11.66;80.08;101381.34;5009957;28;20087;-75
2021/10/04 07:50:50;;;;;;;8.48;1.58;;;;;;;11.61;80.59;101386.97;5013841;28;20436;-74
2021/10/04 07:53:16;;;;;;;4.90;1.73;;;;;;;11.55;79.84;101376.38;5010368;28;20025;-75
2021/10/04 07:55:41;;;;;;;8.60;1.50;;;;;;;11.55;80.37;101384.16;5011187;28;20502;-76
2021/10/04 07:58:07;;;;;;;4.50;1.50;;;;;;;11.62;79.69;101386.03;5021085;28;20026;-77
2021/10/04 08:00:33;;;;;;;5.03;2.17;;;;;;;11.63;80.27;101379.84;5016123;28;20038;-78
2021/10/04 08:02:59;;;;;;;5.00;1.55;;;;;;;11.67;79.82;101381.16;5001060;28;20167;-76
2021/10/04 08:05:25;;;;;;;13.15;1.80;;;;;;;11.78;79.45;101369.75;5016149;28;20109;-75
2021/10/04 08:07:50;;;;;;;5.43;1.58;;;;;;;11.83;78.65;101369.31;4998800;28;20026;-76
2021/10/04 08:10:16;;;;;;;5.47;1.52;;;;;;;11.76;79.41;101356.09;5012058;28;20038;-76
2021/10/04 08:12:42;;;;;;;5.53;1.35;;;;;;;11.76;79.68;101366.47;5018285;28;20030;-76
2021/10/04 08:15:08;;;;;;;6.55;1.40;;;;;;;11.81;79.83;101361.66;4999999;28;20072;-76
2021/10/04 08:17:34;;;;;;;4.28;1.08;;;;;;;11.85;79.86;101359.59;5012712;28;20104;-76
2021/10/04 08:20:00;;;;;;;3.33;1.20;;;;;;;12.07;78.52;101360.88;5008491;28;20121;-73
2021/10/04 08:22:27;;;;;;;3.55;1.48;;;;;;;12.20;78.51;101361.28;5010345;28;20053;-75
2021/10/04 08:24:53;;;;;;;5.60;1.17;;;;;;;12.43;77.41;101363.38;4994322;28;20132;-77
2021/10/04 08:27:19;;;;;;;3.28;1.10;;;;;;;12.49;77.48;101362.78;5008545;28;20147;-78
2021/10/04 08:29:46;;;;;;;5.35;1.25;;;;;;;12.48;77.08;101366.34;5016491;28;20501;-76
2021/10/04 08:32:12;;;;;;;3.38;1.02;;;;;;;12.46;77.33;101368.28;5015398;28;20034;-75
2021/10/04 08:34:37;;;;;;;5.13;1.35;;;;;;;12.52;77.70;101364.25;5019572;28;20044;-76
2021/10/04 08:37:03;;;;;;;5.38;0.95;;;;;;;12.50;77.27;101374.00;5029232;28;20667;-76
2021/10/04 08:39:29;;;;;;;5.68;1.40;;;;;;;12.57;76.59;101367.22;5013720;28;20064;-76
2021/10/04 08:41:55;;;;;;;6.53;1.73;;;;;;;12.65;77.28;101369.84;5037402;28;20044;-76
2021/10/04 08:44:20;;;;;;;6.65;1.00;;;;;;;12.79;76.45;101371.88;5020027;28;20402;-75
2021/10/04 08:46:47;;;;;;;4.45;1.08;;;;;;;12.95;76.00;101367.69;5017857;28;20034;-78
2021/10/04 08:49:14;;;;;;;6.47;1.10;;;;;;;13.04;75.00;101366.75;4996166;28;20038;-75
2021/10/04 08:51:41;;;;;;;3.42;1.38;;;;;;;13.18;74.59;101373.13;5007552;28;20136;-75
2021/10/04 08:54:07;;;;;;;4.53;1.13;;;;;;;13.22;74.80;101377.88;5011213;28;20036;-75
2021/10/04 08:56:34;;;;;;;5.70;0.90;;;;;;;13.36;74.06;101373.84;5014394;28;20041;-74
2021/10/04 08:59:00;;;;;;;6.07;2.17;;;;;;;13.44;74.10;101368.63;5010092;28;20420;-79
2021/10/04 09:01:25;;;;;;;5.20;1.15;;;;;;;13.50;73.08;101374.19;5013245;28;20029;-75
2021/10/04 09:03:57;;;;;;;2.50;0.93;;;;;;;13.55;73.64;101366.72;5014173;28;20017;-76
2021/10/04 09:06:26;;;;;;;4.90;1.20;;;;;;;13.65;73.76;101369.16;5016167;28;20422;-75
2021/10/04 09:08:59;;;;;;;11.25;1.88;;;;;;;13.75;74.27;101375.84;5010458;28;20168;-75
2021/10/04 09:11:37;;;;;;;2.05;0.73;;;;;;;13.93;71.50;101364.44;4997799;28;20045;-73
2021/10/04 09:14:17;;;;;;;4.68;0.80;;;;;;;14.01;71.81;101372.22;5008703;28;20117;-75
2021/10/04 09:17:13;;;;;;;2.88;1.00;;;;;;;14.21;70.70;101385.75;5017603;28;20042;-74
2021/10/04 09:19:43;;;;;;;3.28;0.90;;;;;;;14.19;70.16;101385.09;4986565;28;20069;-76
2021/10/04 09:22:10;;;;;;;4.60;0.90;;;;;;;14.20;71.15;101386.72;5012301;28;20390;-76
2021/10/04 09:24:39;;;;;;;5.70;1.00;;;;;;;14.39;71.66;101390.75;5023875;28;20504;-76
2021/10/04 09:27:38;;;;;;;10.15;1.10;;;;;;;14.50;70.07;101387.78;4995776;28;20068;-74
2021/10/04 09:30:13;;;;;;;7.13;1.38;;;;;;;14.71;69.66;101394.28;5016064;28;20037;-74
2021/10/04 09:32:41;;;;;;;2.78;1.00;;;;;;;14.89;66.35;101391.44;5010392;28;20091;-77
2021/10/04 09:35:30;;;;;;;5.28;0.80;;;;;;;14.88;65.99;101390.66;5007246;28;20026;-76
2021/10/04 09:37:59;;;;;;;4.80;0.70;;;;;;;14.92;65.66;101389.31;5025499;28;20088;-76
2021/10/04 09:40:27;;;;;;;5.85;0.80;;;;;;;15.01;66.00;101390.06;5011509;28;20021;-76
2021/10/04 09:42:53;;;;;;;1.70;0.88;;;;;;;14.97;63.67;101386.19;5008657;28;20034;-73
2021/10/04 09:45:19;;;;;;;5.25;0.93;;;;;;;15.02;65.19;101378.66;5012751;28;20112;-74
2021/10/04 09:47:45;;;;;;;5.78;0.90;;;;;;;15.17;64.47;101376.13;5013964;28;20037;-75
2021/10/04 09:50:24;;;;;;;5.07;1.08;;;;;;;15.33;63.81;101377.81;5006248;28;20026;-73
2021/10/04 09:52:59;;;;;;;6.30;1.13;;;;;;;15.46;63.80;101385.91;5008386;28;20479;-74
2021/10/04 09:55:24;;;;;;;6.93;1.58;;;;;;;15.47;62.22;101382.31;5021748;28;20127;-74
2021/10/04 09:57:59;;;;;;;5.95;0.98;;;;;;;15.62;61.83;101379.75;5011623;28;20592;-75
2021/10/04 10:00:26;;;;;;;6.50;0.70;;;;;;;15.84;62.11;101382.53;5018130;28;20060;-76
2021/10/04 10:02:55;;;;;;;5.10;1.08;;;;;;;15.89;61.00;101375.00;5010822;28;20030;-74
2021/10/04 10:05:26;;;;;;;7.32;0.70;;;;;;;15.90;62.96;101372.22;5025817;28;20376;-75
2021/10/04 10:07:52;;;;;;;2.10;0.82;;;;;;;15.90;61.93;101374.81;5010053;28;20033;-75
2021/10/04 10:10:18;;;;;;;6.93;1.13;;;;;;;15.93;62.21;101384.91;5019845;28;20022;-76
2021/10/04 10:12:44;;;;;;;4.53;0.90;;;;;;;16.25;61.13;101385.59;5012432;28;20330;-75
2021/10/04 10:15:19;;;;;;;6.72;0.70;;;;;;;16.27;59.36;101385.41;5013632;28;20119;-75
2021/10/04 10:17:47;;;;;;;12.43;0.70;;;;;;;16.20;57.83;101389.75;5007262;28;20606;-74
2021/10/04 10:20:20;;;;;;;6.90;0.77;;;;;;;16.29;58.79;101396.53;5009598;28;20083;-75
2021/10/04 10:22:52;;;;;;;3.78;0.60;;;;;;;16.22;58.39;101392.97;5025082;28;20038;-77
2021/10/04 10:25:39;;;;;;;13.80;1.73;;;;;;;16.34;59.83;101395.00;5003392;28;20094;-76
2021/10/04 10:28:25;;;;;;;4.93;0.63;;;;;;;16.26;58.33;101392.47;5008676;28;20024;-77
2021/10/04 10:30:52;;;;;;;2.92;0.70;;;;;;;16.14;59.17;101394.72;5012796;28;20105;-77
2021/10/04 10:33:44;;;;;;;5.45;1.25;;;;;;;15.95;57.60;101395.19;5005596;28;20065;-75
2021/10/04 10:36:10;;;;;;;3.63;0.50;;;;;;;15.93;58.37;101395.38;5013334;28;20048;-77
2021/10/04 10:39:00;;;;;;;3.30;0.70;;;;;;;15.88;59.76;101386.44;5012784;28;20022;-74
2021/10/04 10:41:27;;;;;;;5.90;0.65;;;;;;;16.00;57.28;101386.84;5011569;28;20065;-74
2021/10/04 10:44:02;;;;;;;8.20;0.90;;;;;;;16.28;56.36;101380.00;5014502;28;20479;-75
2021/10/04 10:46:52;;;;;;;1.73;0.60;;;;;;;16.45;56.20;101374.63;5006895;28;20041;-75
2021/10/04 10:49:55;;;;;;;6.03;0.65;;;;;;;16.49;57.76;101387.16;5004963;28;20033;-76
2021/10/04 10:52:24;;;;;;;4.43;1.05;;;;;;;16.51;56.84;101389.59;5027169;28;20030;-77
2021/10/04 10:54:52;;;;;;;6.13;0.80;;;;;;;16.23;57.84;101382.34;5011223;28;20041;-76
2021/10/04 10:57:17;;;;;;;5.72;0.80;;;;;;;16.18;58.20;101384.72;4990702;28;20112;-76
2021/10/04 10:59:43;;;;;;;4.18;0.63;;;;;;;16.14;57.24;101380.81;5019111;28;20132;-75
2021/10/04 11:02:48;;;;;;;3.00;0.40;;;;;;;16.29;56.81;101384.28;5018336;28;20291;-75
2021/10/04 11:05:38;;;;;;;6.38;0.95;;;;;;;16.42;56.16;101381.00;5021000;28;20438;-76
2021/10/04 11:08:06;;;;;;;5.28;0.85;;;;;;;16.55;55.98;101385.59;5034151;28;20037;-75
2021/10/04 11:10:33;;;;;;;5.90;0.82;;;;;;;16.58;55.73;101381.84;5016101;28;20128;-75
2021/10/04 11:13:08;;;;;;;5.15;0.85;;;;;;;16.68;53.60;101387.59;5009796;28;20036;-74
2021/10/04 11:15:35;;;;;;;3.83;0.85;;;;;;;16.61;54.84;101381.47;5010944;28;20042;-75
2021/10/04 11:18:00;;;;;;;4.43;1.42;;;;;;;16.62;53.71;101378.66;5011252;28;20052;-74
2021/10/04 11:20:26;;;;;;;5.00;0.85;;;;;;;16.68;55.22;101382.34;5011298;28;20033;-75
2021/10/04 11:23:09;;;;;;;5.72;1.30;;;;;;;17.00;55.00;101380.34;5025097;28;20071;-75
2021/10/04 11:25:42;;;;;;;;;;;;;;;16.88;52.05;101372.16;5010116;28;20568;-76